TimeEST,TemperatureF,Dew PointF,Humidity,Sea Level PressureIn,VisibilityMPH,Wind Direction,Wind SpeedMPH,Gust SpeedMPH,PrecipitationIn,Events,Conditions,WindDirDegrees,DateUTC
12:56 AM,39.0,30.9,73,30.02,10.0,North,12.7,-,N/A,,Mostly Cloudy,360,2011-11-24 05:56:00
1:56 AM,37.9,30.9,76,30.04,10.0,NNW,12.7,-,N/A,,Mostly Cloudy,340,2011-11-24 06:56:00
2:56 AM,36.0,30.0,79,30.06,10.0,NNW,9.2,-,N/A,,Scattered Clouds,340,2011-11-24 07:56:00
3:56 AM,35.1,30.0,82,30.09,10.0,NW,10.4,-,N/A,,Partly Cloudy,320,2011-11-24 08:56:00
4:56 AM,35.1,30.0,82,30.11,10.0,NW,9.2,-,N/A,,Clear,320,2011-11-24 09:56:00
5:56 AM,35.6,30.2,81,30.10,10.0,NW,11.5,-,N/A,,Clear,320,2011-11-24 10:56:00
6:56 AM,33.8,28.4,81,30.13,10.0,North,11.5,-,N/A,,Clear,350,2011-11-24 11:56:00
7:56 AM,36.0,30.0,79,30.16,10.0,NNW,4.6,-,N/A,,Clear,330,2011-11-24 12:56:00
8:56 AM,39.0,30.9,73,30.16,10.0,NW,11.5,-,N/A,,Clear,310,2011-11-24 13:56:00
9:56 AM,41.0,30.0,65,30.16,10.0,NW,5.8,-,N/A,,Clear,310,2011-11-24 14:56:00
10:56 AM,42.8,30.2,61,30.14,10.0,West,8.1,-,N/A,,Clear,280,2011-11-24 15:56:00
11:56 AM,45.0,32.0,60,30.14,10.0,Calm,Calm,-,N/A,,Clear,0,2011-11-24 16:56:00
12:56 PM,46.9,32.0,56,30.14,10.0,WNW,4.6,-,N/A,,Clear,290,2011-11-24 17:56:00
1:56 PM,51.1,34.0,52,30.13,10.0,West,6.9,-,N/A,,Clear,280,2011-11-24 18:56:00
2:56 PM,51.1,34.0,52,30.13,10.0,West,4.6,-,N/A,,Clear,260,2011-11-24 19:56:00
3:56 PM,50.0,34.0,54,30.14,10.0,Variable,3.5,-,N/A,,Clear,0,2011-11-24 20:56:00
4:56 PM,44.1,34.0,68,30.16,10.0,Calm,Calm,-,N/A,,Clear,0,2011-11-24 21:56:00
5:56 PM,44.1,34.0,68,30.16,10.0,Calm,Calm,-,N/A,,Clear,0,2011-11-24 22:56:00
6:56 PM,48.0,34.0,58,30.17,10.0,West,4.6,-,N/A,,Clear,260,2011-11-24 23:56:00
7:56 PM,48.0,34.0,58,30.16,10.0,WSW,3.5,-,N/A,,Clear,250,2011-11-25 00:56:00
8:56 PM,43.0,34.0,71,30.17,10.0,NW,3.5,-,N/A,,Clear,310,2011-11-25 01:56:00
9:56 PM,41.0,35.1,79,30.17,10.0,NW,3.5,-,N/A,,Clear,310,2011-11-25 02:56:00
10:56 PM,45.0,34.0,65,30.17,10.0,West,4.6,-,N/A,,Clear,260,2011-11-25 03:56:00
11:56 PM,44.1,34.0,68,30.16,10.0,WSW,3.5,-,N/A,,Clear,250,2011-11-25 04:56:00